Montreal / Aéroparc Île Perrot

METAR CYUL TAF CYUL
-12 °C
°C
-
°C
17m
Wiek
00:17:19
LT
23:17
UTC
0 ft

2.000

4.000

6.000

8.000

10.000

FEW 10.000
VFR
<?= Yii::t('app', 'Wind direction') ?> <?= Yii::t('app', 'of'); ?>
240°
07:16
Wschód słońca
52%
Wilgotność
Siła wiatru
Zamknięte/Śnieg
Zasięg wzroku na RWY
Stan RWY
Widzialność pionowa
Min. widoczność
CAVOK
Trend
Korekta
Raport specjalny
30,30 inHg
QNH
METAR CYUL 312300Z 24003KT 15SM FEW100 M12/M20 A3030 RMK AC1 SLP264
Kilka chmur
1 kt
1 kt
18:00
VFR
8 kt
19:00
VFR
8 kt
20:00
VFR
8 kt
21:00
VFR
5 kt
22:00
VFR
5 kt
23:00
VFR
5 kt
00:00
VFR
5 kt
15 mi
Widoczność
Brak
Sufit
3 kt
Wiatr
metar-taf.com/CSP6

Metar-Taf.com

Dekoder wizualny

My i strony trzecie śledzimy Twoje zachowanie internetowe na naszej stronie za pomocą plików cookie. Jeśli kontynuujesz, zakładamy, że zgadzasz się z naszymi polityka plików cookie.